Time;durP1;ratioP1;P1;durP2;ratioP2;P2;SDS_P1;SDS_P2;PMS_P1;PMS_P2;Temp;Humidity;BMP_temperature;BMP_pressure;BME280_temperature;BME280_humidity;BME280_pressure;Samples;Min_cycle;Max_cycle;Signal;HPM_P1;HPM_P2
2022/06/09 00:01:33;;;;;;;4.13;1.27;;;16.40;92.30;;;;;;5046125;28;20240;-81
2022/06/09 00:04:12;;;;;;;4.30;1.40;;;16.40;92.30;;;;;;5044532;28;20112;-80
2022/06/09 00:06:49;;;;;;;4.28;1.30;;;16.40;92.40;;;;;;5058967;28;20040;-81
2022/06/09 00:09:16;;;;;;;5.32;1.20;;;16.40;92.50;;;;;;5045780;28;20195;-81
2022/06/09 00:11:48;;;;;;;5.18;1.20;;;16.40;92.60;;;;;;5042114;28;20051;-80
2022/06/09 00:14:14;;;;;;;3.25;1.40;;;16.40;92.60;;;;;;5039591;28;20067;-80
2022/06/09 00:16:39;;;;;;;7.03;1.50;;;16.50;92.80;;;;;;5057766;28;20591;-80
2022/06/09 00:19:05;;;;;;;4.82;1.27;;;16.50;92.90;;;;;;5021576;28;20044;-80
2022/06/09 00:21:32;;;;;;;4.30;1.30;;;16.40;92.90;;;;;;5045019;28;20037;-80
2022/06/09 00:23:58;;;;;;;4.10;1.50;;;16.50;92.80;;;;;;5051613;28;20047;-81
2022/06/09 00:26:24;;;;;;;5.00;1.45;;;16.50;92.80;;;;;;5039484;28;20075;-80
2022/06/09 00:28:50;;;;;;;4.50;1.40;;;16.50;92.70;;;;;;5045980;28;20044;-81
2022/06/09 00:31:15;;;;;;;3.97;1.35;;;16.50;92.70;;;;;;5042104;28;20749;-81
2022/06/09 00:33:41;;;;;;;7.35;1.90;;;16.50;92.70;;;;;;5043056;28;20039;-80
2022/06/09 00:36:07;;;;;;;6.03;1.40;;;16.50;92.70;;;;;;5030674;28;20342;-79
2022/06/09 00:38:33;;;;;;;4.95;1.40;;;16.50;92.70;;;;;;5041168;28;20025;-80
2022/06/09 00:41:00;;;;;;;4.93;1.47;;;16.50;92.80;;;;;;5050465;28;20503;-81
2022/06/09 00:43:30;;;;;;;4.70;1.45;;;16.40;92.70;;;;;;5042093;28;20180;-80
2022/06/09 00:46:11;;;;;;;4.72;1.38;;;16.40;92.60;;;;;;5027002;28;20389;-80
2022/06/09 00:48:48;;;;;;;4.70;1.27;;;16.50;92.40;;;;;;5051157;28;20028;-81
2022/06/09 00:51:29;;;;;;;5.67;1.30;;;16.40;92.50;;;;;;5036460;28;20273;-80
2022/06/09 00:54:01;;;;;;;6.95;1.35;;;16.40;92.90;;;;;;5047621;28;20067;-81
2022/06/09 00:56:27;;;;;;;6.80;1.35;;;16.40;92.80;;;;;;5051490;28;20735;-80
2022/06/09 00:58:55;;;;;;;5.45;1.42;;;16.40;93.00;;;;;;5035038;28;20063;-80
2022/06/09 01:01:23;;;;;;;6.03;1.42;;;16.40;93.00;;;;;;5038263;28;22346;-81
2022/06/09 01:03:57;;;;;;;6.50;1.17;;;16.40;93.20;;;;;;5050036;28;20037;-81
2022/06/09 01:06:28;;;;;;;4.57;1.50;;;16.40;92.90;;;;;;5035915;28;20056;-81
2022/06/09 01:09:22;;;;;;;7.28;1.40;;;16.40;92.90;;;;;;5052747;28;20043;-81
2022/06/09 01:11:52;;;;;;;7.10;1.30;;;16.40;92.50;;;;;;5045636;28;20473;-81
2022/06/09 01:14:21;;;;;;;6.13;1.60;;;16.40;92.80;;;;;;5037900;28;20165;-80
2022/06/09 01:17:10;;;;;;;5.37;1.70;;;16.30;92.90;;;;;;5042970;28;20045;-81
2022/06/09 01:19:48;;;;;;;6.43;1.45;;;16.40;92.60;;;;;;5053112;28;20089;-81
2022/06/09 01:22:45;;;;;;;5.55;1.30;;;16.30;92.50;;;;;;5035034;28;20316;-81
2022/06/09 01:25:29;;;;;;;5.68;1.35;;;16.30;92.30;;;;;;5035704;28;20528;-82
2022/06/09 01:28:16;;;;;;;5.07;1.30;;;16.30;92.20;;;;;;5053964;28;20032;-81
2022/06/09 01:30:54;;;;;;;5.07;1.13;;;16.30;92.30;;;;;;5037653;28;20183;-80
2022/06/09 01:33:34;;;;;;;7.28;1.30;;;16.20;92.60;;;;;;5036245;28;20253;-80
2022/06/09 01:36:12;;;;;;;8.43;1.50;;;16.20;92.40;;;;;;5039236;28;20016;-80
2022/06/09 01:38:45;;;;;;;5.28;1.30;;;16.10;92.40;;;;;;5028842;28;20033;-80
2022/06/09 01:41:13;;;;;;;5.40;1.52;;;16.10;92.50;;;;;;5047880;28;20398;-81
2022/06/09 01:43:39;;;;;;;5.97;1.30;;;16.10;92.60;;;;;;5045979;28;20083;-81
2022/06/09 01:46:09;;;;;;;7.28;1.50;;;16.00;92.60;;;;;;5028415;28;20465;-81
2022/06/09 01:48:36;;;;;;;6.13;1.42;;;16.00;92.60;;;;;;5041354;28;20343;-81
2022/06/09 01:51:10;;;;;;;5.95;1.70;;;16.00;92.60;;;;;;5050515;28;20040;-81
2022/06/09 01:53:47;;;;;;;5.22;1.35;;;16.00;92.50;;;;;;5029201;28;20126;-81
2022/06/09 01:56:31;;;;;;;5.13;1.50;;;15.90;92.50;;;;;;5041961;28;20036;-81
2022/06/09 01:59:16;;;;;;;6.10;1.30;;;15.90;92.60;;;;;;5051912;28;20039;-79
2022/06/09 02:01:48;;;;;;;5.57;1.20;;;15.90;92.40;;;;;;5054216;28;20062;-81
2022/06/09 02:04:20;;;;;;;4.18;1.50;;;15.80;92.60;;;;;;5040785;28;20032;-81
2022/06/09 02:06:48;;;;;;;5.82;1.30;;;15.80;92.50;;;;;;5040133;28;20062;-80
2022/06/09 02:09:16;;;;;;;5.73;1.50;;;15.80;92.60;;;;;;5022215;28;20180;-81
2022/06/09 02:12:10;;;;;;;4.85;1.20;;;15.70;92.60;;;;;;5050683;28;20539;-81
2022/06/09 02:14:37;;;;;;;5.80;1.25;;;15.70;92.40;;;;;;5058238;28;20303;-81
2022/06/09 02:17:07;;;;;;;5.28;1.40;;;15.70;92.70;;;;;;5036345;28;20060;-81
2022/06/09 02:19:34;;;;;;;7.90;1.50;;;15.70;92.80;;;;;;5043161;28;20045;-81
2022/06/09 02:22:01;;;;;;;5.37;1.40;;;15.60;92.80;;;;;;5042648;28;20047;-81
2022/06/09 02:24:27;;;;;;;5.82;1.40;;;15.60;92.90;;;;;;5039416;28;20050;-81
2022/06/09 02:26:52;;;;;;;7.05;1.45;;;15.60;92.90;;;;;;5049118;28;20248;-81
2022/06/09 02:29:18;;;;;;;6.70;1.60;;;15.50;92.90;;;;;;5046505;28;20275;-81
2022/06/09 02:31:44;;;;;;;4.40;1.33;;;15.60;92.90;;;;;;5048820;28;20128;-81
2022/06/09 02:34:10;;;;;;;4.45;1.25;;;15.60;92.90;;;;;;5050254;28;20025;-81
2022/06/09 02:36:36;;;;;;;5.57;1.43;;;15.50;92.90;;;;;;5044290;28;20029;-81
2022/06/09 02:39:02;;;;;;;6.65;1.65;;;15.50;92.90;;;;;;5039927;28;20047;-80
2022/06/09 02:41:28;;;;;;;5.00;1.20;;;15.50;92.90;;;;;;5039534;28;20033;-81
2022/06/09 02:43:54;;;;;;;4.30;1.40;;;15.50;92.90;;;;;;5050797;28;20036;-81
2022/06/09 02:46:19;;;;;;;5.20;1.40;;;15.50;92.90;;;;;;5035149;28;20273;-81
2022/06/09 02:48:45;;;;;;;5.53;1.23;;;15.40;92.80;;;;;;5044190;28;20036;-81
2022/06/09 02:51:32;;;;;;;6.37;1.40;;;15.40;92.80;;;;;;5035553;28;20051;-82
2022/06/09 02:54:01;;;;;;;3.88;1.40;;;15.40;92.70;;;;;;5047172;28;20407;-80
2022/06/09 02:56:28;;;;;;;7.10;1.48;;;15.40;92.80;;;;;;5027717;28;20595;-81
2022/06/09 02:58:55;;;;;;;6.20;1.40;;;15.40;92.90;;;;;;5055279;28;20035;-81
2022/06/09 03:01:21;;;;;;;5.45;1.38;;;15.40;92.90;;;;;;5026461;28;20250;-81
2022/06/09 03:03:47;;;;;;;4.27;1.30;;;15.30;92.90;;;;;;5046898;28;20036;-81
2022/06/09 03:06:12;;;;;;;5.82;1.40;;;15.30;92.90;;;;;;5028064;28;20025;-82
2022/06/09 03:08:38;;;;;;;5.63;1.50;;;15.30;92.90;;;;;;5052639;28;20056;-81
2022/06/09 03:11:04;;;;;;;5.80;1.33;;;15.20;92.90;;;;;;5033479;28;20384;-81
2022/06/09 03:13:30;;;;;;;5.53;1.63;;;15.20;92.90;;;;;;5051568;28;20033;-81
2022/06/09 03:15:55;;;;;;;5.33;1.30;;;15.20;92.90;;;;;;5051372;28;20318;-82
2022/06/09 03:18:21;;;;;;;5.65;1.33;;;15.20;92.90;;;;;;5028315;28;20146;-81
2022/06/09 03:20:48;;;;;;;8.83;1.57;;;15.10;92.90;;;;;;5050403;28;20050;-81
2022/06/09 03:23:14;;;;;;;6.00;1.40;;;15.10;92.90;;;;;;5038438;28;20112;-81
2022/06/09 03:25:42;;;;;;;5.28;1.40;;;15.10;92.90;;;;;;5040055;28;20025;-81
2022/06/09 03:28:08;;;;;;;4.80;1.35;;;15.10;92.90;;;;;;5029188;28;20033;-81
2022/06/09 03:30:34;;;;;;;5.77;1.40;;;15.10;92.90;;;;;;5038674;28;20076;-81
2022/06/09 03:33:00;;;;;;;5.13;1.38;;;15.10;92.90;;;;;;5041891;28;20537;-81
2022/06/09 03:35:26;;;;;;;5.57;1.40;;;15.00;92.90;;;;;;5051481;28;20101;-82
2022/06/09 03:37:52;;;;;;;4.75;1.48;;;15.00;93.00;;;;;;5042636;28;20037;-81
2022/06/09 03:40:23;;;;;;;5.07;1.50;;;15.00;93.00;;;;;;5042638;28;20234;-81
2022/06/09 03:42:49;;;;;;;7.07;1.50;;;15.00;93.00;;;;;;5023411;28;20503;-81
2022/06/09 03:45:15;;;;;;;5.35;1.45;;;15.00;93.10;;;;;;5050402;28;20059;-82
2022/06/09 03:47:41;;;;;;;8.03;1.70;;;14.90;93.00;;;;;;5044930;28;20154;-81
2022/06/09 03:50:12;;;;;;;5.22;1.40;;;14.90;93.10;;;;;;5033431;28;20039;-81
2022/06/09 03:52:38;;;;;;;4.07;1.33;;;14.90;93.10;;;;;;5043407;28;20027;-81
2022/06/09 03:55:04;;;;;;;4.47;1.60;;;14.90;93.10;;;;;;5034035;28;20029;-81
2022/06/09 03:57:29;;;;;;;3.97;1.20;;;14.90;93.20;;;;;;5028038;28;20434;-82
2022/06/09 03:59:55;;;;;;;3.43;1.10;;;14.90;93.60;;;;;;5051959;28;20392;-82
2022/06/09 04:02:23;;;;;;;4.13;1.35;;;14.90;93.30;;;;;;5057950;28;20241;-83
2022/06/09 04:04:49;;;;;;;4.17;1.20;;;14.90;93.30;;;;;;5030639;28;20061;-82
2022/06/09 04:07:16;;;;;;;6.32;1.60;;;14.90;93.40;;;;;;5051545;28;20253;-82
2022/06/09 04:09:41;;;;;;;5.53;1.20;;;14.90;93.50;;;;;;5039520;28;20102;-81
2022/06/09 04:12:07;;;;;;;5.03;1.50;;;14.90;93.60;;;;;;5032863;28;20064;-82
2022/06/09 04:14:33;;;;;;;5.37;1.60;;;14.90;93.60;;;;;;5049290;28;20631;-82
2022/06/09 04:16:59;;;;;;;5.18;1.60;;;14.90;93.70;;;;;;5044954;28;20095;-81
2022/06/09 04:19:24;;;;;;;8.60;1.67;;;14.80;93.70;;;;;;5047475;28;20096;-82
2022/06/09 04:21:50;;;;;;;5.85;1.40;;;14.90;93.80;;;;;;5044445;28;20055;-81
2022/06/09 04:24:17;;;;;;;4.33;1.47;;;14.90;93.80;;;;;;5058538;28;20380;-81
2022/06/09 04:26:43;;;;;;;5.22;1.30;;;14.90;93.80;;;;;;5041898;28;20037;-82
2022/06/09 04:29:11;;;;;;;5.20;1.35;;;14.90;93.90;;;;;;5026590;28;20234;-82
2022/06/09 04:31:38;;;;;;;4.13;1.40;;;14.90;93.90;;;;;;5047642;28;20029;-82
2022/06/09 04:34:04;;;;;;;5.15;1.38;;;14.90;94.00;;;;;;5050868;28;20043;-81
2022/06/09 04:36:30;;;;;;;4.30;1.53;;;14.90;94.00;;;;;;5045258;28;20031;-81
2022/06/09 04:38:56;;;;;;;7.53;1.70;;;15.00;94.20;;;;;;5048420;28;20239;-80
2022/06/09 04:41:21;;;;;;;4.60;1.30;;;15.00;94.30;;;;;;5043296;28;20028;-81
2022/06/09 04:43:47;;;;;;;5.30;1.40;;;15.00;94.40;;;;;;5024616;28;20500;-81
2022/06/09 04:46:21;;;;;;;5.80;1.63;;;15.00;94.60;;;;;;5041004;28;20025;-82
2022/06/09 04:48:47;;;;;;;7.38;1.75;;;15.10;94.70;;;;;;5050894;28;20052;-82
2022/06/09 04:51:16;;;;;;;3.47;1.33;;;15.20;95.00;;;;;;5030994;28;20032;-81
2022/06/09 04:53:42;;;;;;;7.00;1.60;;;15.20;95.20;;;;;;5045393;28;20025;-82
2022/06/09 04:56:09;;;;;;;8.02;1.35;;;15.30;95.50;;;;;;5039410;28;20252;-82
2022/06/09 04:58:38;;;;;;;5.70;1.50;;;15.30;95.70;;;;;;5046074;28;20563;-80
2022/06/09 05:01:12;;;;;;;4.70;1.75;;;15.40;95.90;;;;;;5041857;28;20065;-82
2022/06/09 05:03:38;;;;;;;5.17;1.50;;;15.50;96.00;;;;;;5038610;28;20454;-81
2022/06/09 05:06:04;;;;;;;4.75;1.65;;;15.60;96.10;;;;;;5021997;28;20029;-82
2022/06/09 05:08:29;;;;;;;7.07;1.70;;;15.70;96.10;;;;;;5045031;28;20065;-81
2022/06/09 05:10:55;;;;;;;5.23;1.73;;;15.80;96.20;;;;;;5040038;28;20329;-81
2022/06/09 05:13:21;;;;;;;4.43;1.33;;;15.90;96.50;;;;;;5044775;28;20056;-83
2022/06/09 05:15:55;;;;;;;6.53;1.63;;;16.00;96.10;;;;;;5035188;28;20032;-81
2022/06/09 05:18:23;;;;;;;5.53;1.60;;;16.10;95.90;;;;;;5038192;28;20048;-81
2022/06/09 05:20:52;;;;;;;6.57;1.67;;;16.20;95.90;;;;;;5036655;28;20072;-81
2022/06/09 05:23:19;;;;;;;5.22;1.60;;;16.20;95.90;;;;;;5028763;28;20844;-82
2022/06/09 05:25:49;;;;;;;7.40;1.83;;;16.30;95.90;;;;;;5037463;28;20044;-81
2022/06/09 05:28:16;;;;;;;7.65;1.60;;;16.40;96.00;;;;;;5048511;28;20037;-81
2022/06/09 05:30:41;;;;;;;6.38;1.60;;;16.40;95.70;;;;;;5026657;28;20041;-81
2022/06/09 05:33:07;;;;;;;8.03;1.53;;;16.40;95.70;;;;;;5046643;28;20401;-81
2022/06/09 05:35:33;;;;;;;7.38;1.60;;;16.50;95.70;;;;;;5031707;28;20272;-82
2022/06/09 05:46:15;;;;;;;6.75;1.67;;;16.60;95.20;;;;;;5027957;28;20729;-81
2022/06/09 05:48:44;;;;;;;6.00;1.52;;;16.70;95.20;;;;;;5034263;28;20040;-82
2022/06/09 05:51:11;;;;;;;5.30;1.50;;;16.70;95.30;;;;;;5034039;28;20555;-81
2022/06/09 05:53:37;;;;;;;5.55;1.60;;;16.70;95.60;;;;;;5038448;28;20055;-81
2022/06/09 05:56:05;;;;;;;4.88;1.50;;;16.70;95.40;;;;;;5036158;28;20500;-82
2022/06/09 05:58:31;;;;;;;5.47;1.47;;;16.70;95.40;;;;;;5043433;28;20511;-81
2022/06/09 06:00:56;;;;;;;7.25;1.70;;;16.70;95.50;;;;;;5032763;28;20050;-81
2022/06/09 06:03:22;;;;;;;5.38;1.70;;;16.80;95.60;;;;;;5036306;28;20033;-81
2022/06/09 06:08:32;;;;;;;7.30;1.70;;;16.90;95.60;;;;;;5031890;28;20417;-81
2022/06/09 06:10:59;;;;;;;5.18;1.70;;;16.90;95.60;;;;;;5041379;28;20028;-82
2022/06/09 06:13:26;;;;;;;5.78;1.90;;;17.00;95.60;;;;;;5027089;28;20108;-81
2022/06/09 06:15:52;;;;;;;7.03;1.60;;;17.00;95.50;;;;;;5042003;28;20501;-81
2022/06/09 06:18:18;;;;;;;4.72;1.92;;;17.00;95.60;;;;;;5015210;28;20313;-81
2022/06/09 06:20:43;;;;;;;7.77;1.80;;;17.10;95.90;;;;;;5045738;28;20489;-81
2022/06/09 06:23:09;;;;;;;7.03;1.80;;;17.10;95.60;;;;;;5033497;28;20553;-81
2022/06/09 06:25:35;;;;;;;6.33;1.80;;;17.20;95.60;;;;;;5039974;28;20123;-81
2022/06/09 06:28:00;;;;;;;5.45;1.60;;;17.20;95.60;;;;;;5039926;28;20511;-82
2022/06/09 06:30:26;;;;;;;6.70;1.73;;;17.30;95.50;;;;;;5037276;28;20781;-81
2022/06/09 06:32:52;;;;;;;7.75;1.70;;;17.30;95.40;;;;;;5023451;28;20041;-81
2022/06/09 06:35:18;;;;;;;7.07;1.80;;;17.30;95.40;;;;;;5049503;28;20099;-82
2022/06/09 06:37:43;;;;;;;7.30;1.73;;;17.40;95.50;;;;;;5035940;28;20041;-80
2022/06/09 06:40:14;;;;;;;6.17;1.50;;;17.40;95.70;;;;;;5049274;28;20305;-83
2022/06/09 06:42:40;;;;;;;6.30;1.58;;;17.50;95.00;;;;;;5049515;28;20029;-81
2022/06/09 06:45:06;;;;;;;8.25;1.65;;;17.50;95.20;;;;;;5043260;28;20072;-81
2022/06/09 06:47:32;;;;;;;5.85;1.67;;;17.60;95.20;;;;;;5031455;28;20233;-80
2022/06/09 06:49:58;;;;;;;5.20;1.60;;;17.50;95.30;;;;;;5069080;28;20629;-81
2022/06/09 06:52:23;;;;;;;8.30;1.95;;;17.60;95.50;;;;;;5034637;28;20033;-82
2022/06/09 06:54:49;;;;;;;6.50;1.70;;;17.70;95.50;;;;;;5024788;28;20064;-81
2022/06/09 06:57:15;;;;;;;5.78;1.88;;;17.70;95.70;;;;;;5036866;28;20021;-82
2022/06/09 06:59:41;;;;;;;5.13;1.90;;;17.80;95.70;;;;;;5040202;28;20989;-81
2022/06/09 07:02:10;;;;;;;6.77;2.30;;;17.90;95.70;;;;;;5026338;28;20474;-83
2022/06/09 07:04:35;;;;;;;8.75;2.60;;;18.00;95.80;;;;;;5040941;28;20041;-83
2022/06/09 07:07:01;;;;;;;7.80;2.42;;;18.00;95.70;;;;;;5043107;28;20151;-82
2022/06/09 07:09:27;;;;;;;9.30;2.80;;;18.10;95.80;;;;;;5034455;28;20039;-81
2022/06/09 07:11:52;;;;;;;8.52;2.70;;;18.20;95.90;;;;;;5042995;28;20278;-82
2022/06/09 07:14:18;;;;;;;8.77;3.00;;;18.30;96.10;;;;;;5043492;28;20040;-81
2022/06/09 07:16:44;;;;;;;7.47;3.07;;;18.40;96.00;;;;;;5042982;28;20032;-80
2022/06/09 07:19:09;;;;;;;7.93;2.92;;;18.50;95.80;;;;;;5033500;28;20045;-82
2022/06/09 07:21:35;;;;;;;7.47;3.07;;;18.60;95.60;;;;;;5051998;28;20029;-81
2022/06/09 07:24:01;;;;;;;6.18;3.30;;;18.60;95.60;;;;;;5034561;28;20355;-80
2022/06/09 07:26:28;;;;;;;7.03;3.20;;;18.70;95.80;;;;;;5031133;28;20492;-81
2022/06/09 07:28:54;;;;;;;8.43;3.47;;;18.80;95.80;;;;;;5041004;28;20501;-80
2022/06/09 07:31:19;;;;;;;6.82;3.20;;;18.90;96.10;;;;;;5045012;28;20036;-82
2022/06/09 07:33:45;;;;;;;7.10;3.03;;;19.10;95.90;;;;;;5030704;28;20077;-80
2022/06/09 07:36:15;;;;;;;7.97;3.03;;;19.10;96.00;;;;;;5044714;28;20035;-82
2022/06/09 07:38:41;;;;;;;7.05;2.88;;;19.30;96.20;;;;;;5054338;28;20159;-81
2022/06/09 07:41:07;;;;;;;6.83;2.67;;;19.50;96.80;;;;;;5036507;28;20027;-81
2022/06/09 07:43:33;;;;;;;6.05;2.63;;;19.60;96.80;;;;;;5053932;28;20036;-82
2022/06/09 07:45:59;;;;;;;5.93;2.40;;;19.80;97.00;;;;;;5041028;28;20280;-80
2022/06/09 07:48:24;;;;;;;4.33;2.30;;;20.00;96.60;;;;;;5056750;28;20401;-81
2022/06/09 07:50:51;;;;;;;4.80;2.33;;;20.20;96.10;;;;;;5020820;28;20051;-81
2022/06/09 07:53:19;;;;;;;5.18;2.40;;;20.30;95.70;;;;;;5051025;28;20033;-81
2022/06/09 07:55:45;;;;;;;7.47;2.50;;;20.40;95.30;;;;;;5029770;28;20075;-81
2022/06/09 07:58:12;;;;;;;9.20;3.00;;;20.50;95.20;;;;;;5050796;28;20028;-81
2022/06/09 08:00:38;;;;;;;6.32;2.55;;;20.60;95.80;;;;;;5040520;28;20044;-82
2022/06/09 08:03:04;;;;;;;6.63;2.80;;;20.80;96.40;;;;;;5062543;28;20286;-81
2022/06/09 08:05:32;;;;;;;5.93;3.08;;;21.00;96.50;;;;;;5037225;28;20067;-81
2022/06/09 08:07:58;;;;;;;6.33;2.80;;;21.20;95.80;;;;;;5035568;28;20494;-81
2022/06/09 08:10:26;;;;;;;4.80;2.70;;;21.40;95.30;;;;;;5051124;28;20067;-81
2022/06/09 08:12:56;;;;;;;6.07;2.80;;;21.50;94.60;;;;;;5038991;28;20277;-82
2022/06/09 08:15:24;;;;;;;6.43;2.90;;;21.60;94.00;;;;;;5047518;28;20090;-81
2022/06/09 08:17:54;;;;;;;5.90;3.08;;;21.70;94.60;;;;;;5034756;28;20786;-81
2022/06/09 08:20:21;;;;;;;4.83;2.57;;;21.80;94.80;;;;;;5040740;28;20052;-82
2022/06/09 08:22:47;;;;;;;5.15;2.88;;;21.90;95.20;;;;;;5068124;28;20186;-81
2022/06/09 08:25:18;;;;;;;6.22;2.80;;;22.10;95.30;;;;;;5067415;28;20135;-83
2022/06/09 08:27:44;;;;;;;6.13;3.10;;;22.30;94.40;;;;;;5033263;28;20064;-81
2022/06/09 08:30:12;;;;;;;6.20;2.90;;;22.50;94.90;;;;;;5034366;28;20037;-82
2022/06/09 08:32:38;;;;;;;5.28;3.13;;;22.70;95.20;;;;;;5047930;28;20044;-82
2022/06/09 08:35:07;;;;;;;6.65;2.92;;;23.00;95.90;;;;;;5057050;28;20041;-81
2022/06/09 08:37:33;;;;;;;4.72;2.92;;;23.40;96.20;;;;;;5028812;28;20028;-83
2022/06/09 08:39:58;;;;;;;4.47;2.20;;;23.80;96.90;;;;;;5041676;28;20040;-81
2022/06/09 08:42:39;;;;;;;3.17;2.20;;;24.30;97.30;;;;;;5039754;28;20151;-82
2022/06/09 08:45:19;;;;;;;3.33;2.20;;;24.90;93.40;;;;;;5035680;28;20659;-82
2022/06/09 08:47:50;;;;;;;5.13;2.43;;;25.50;95.60;;;;;;5047691;28;20038;-81
2022/06/09 08:50:21;;;;;;;4.20;2.30;;;26.00;94.70;;;;;;5052795;28;20036;-81
2022/06/09 08:52:47;;;;;;;4.55;2.30;;;26.40;91.50;;;;;;5032558;28;20242;-82
2022/06/09 08:55:25;;;;;;;5.23;2.47;;;26.40;90.10;;;;;;5064563;28;20036;-83
2022/06/09 08:57:53;;;;;;;5.32;2.47;;;26.30;86.20;;;;;;5030305;28;20727;-83
2022/06/09 09:00:24;;;;;;;5.20;2.80;;;26.10;88.20;;;;;;5049887;28;20036;-82
2022/06/09 09:02:49;;;;;;;4.40;2.60;;;25.80;87.10;;;;;;5033378;28;20520;-82
2022/06/09 09:05:44;;;;;;;4.97;2.47;;;25.60;87.90;;;;;;5048943;28;20039;-82
2022/06/09 09:08:12;;;;;;;4.45;2.50;;;25.20;82.60;;;;;;5033105;28;20090;-82
2022/06/09 09:11:02;;;;;;;3.83;2.60;;;24.90;87.00;;;;;;5035694;28;20282;-82
2022/06/09 09:13:39;;;;;;;2.47;2.15;;;24.50;80.10;;;;;;5035631;28;20313;-81
2022/06/09 09:16:43;;;;;;;5.53;3.00;;;24.10;82.60;;;;;;5075193;28;20507;-81
2022/06/09 09:19:42;;;;;;;4.28;3.03;;;23.60;80.30;;;;;;5065354;28;20500;-80
2022/06/09 09:22:36;;;;;;;3.78;3.08;;;23.10;81.80;;;;;;5046366;28;20037;-81
2022/06/09 09:25:32;;;;;;;3.97;3.15;;;22.70;83.60;;;;;;5031058;28;20045;-80
2022/06/09 09:28:10;;;;;;;6.15;3.30;;;22.40;85.70;;;;;;5058077;28;20043;-80
2022/06/09 09:30:42;;;;;;;6.57;3.40;;;22.10;89.20;;;;;;5031616;28;21528;-80
2022/06/09 09:33:14;;;;;;;6.35;3.55;;;21.80;90.60;;;;;;5046280;28;20540;-80
2022/06/09 09:35:42;;;;;;;5.10;3.20;;;21.70;91.10;;;;;;5040089;28;20050;-80
2022/06/09 09:38:13;;;;;;;5.22;3.10;;;21.60;92.20;;;;;;5045273;28;21364;-80
2022/06/09 09:40:43;;;;;;;4.72;2.90;;;21.50;92.60;;;;;;5038703;28;20067;-80
2022/06/09 09:43:15;;;;;;;5.23;3.10;;;21.40;92.70;;;;;;5063383;28;20025;-80
2022/06/09 09:45:47;;;;;;;5.43;2.80;;;21.40;92.60;;;;;;5026468;28;20211;-80
2022/06/09 09:48:43;;;;;;;4.35;2.45;;;21.40;92.80;;;;;;5038160;28;20451;-81
2022/06/09 09:51:12;;;;;;;4.15;2.40;;;21.40;92.00;;;;;;5054708;28;20040;-81
2022/06/09 09:53:45;;;;;;;3.42;2.17;;;21.50;93.70;;;;;;5039486;28;20234;-80
2022/06/09 09:56:17;;;;;;;3.77;2.20;;;21.60;93.10;;;;;;5074543;28;20036;-80
2022/06/09 09:58:48;;;;;;;3.65;2.40;;;21.60;93.70;;;;;;5040854;28;20733;-82
2022/06/09 10:01:17;;;;;;;2.80;2.22;;;21.70;93.10;;;;;;5034183;28;20049;-80
2022/06/09 10:09:41;;;;;;;3.60;2.40;;;22.00;93.20;;;;;;5033507;28;20173;-81
2022/06/09 10:12:17;;;;;;;4.55;2.90;;;22.10;93.80;;;;;;5043594;28;20109;-81
2022/06/09 10:14:46;;;;;;;5.03;2.90;;;22.20;93.50;;;;;;5044316;28;20427;-80
2022/06/09 10:17:26;;;;;;;4.80;2.97;;;22.40;94.60;;;;;;5038801;28;20132;-81
2022/06/09 10:20:12;;;;;;;4.63;3.10;;;22.50;92.80;;;;;;5031474;28;20194;-81
2022/06/09 10:22:38;;;;;;;6.07;3.20;;;22.60;91.80;;;;;;5028176;28;20587;-81
2022/06/09 10:25:19;;;;;;;4.18;2.50;;;22.70;93.60;;;;;;5053737;28;20040;-81
2022/06/09 10:27:50;;;;;;;6.50;2.90;;;22.80;91.70;;;;;;5033457;28;20229;-81
2022/06/09 10:30:22;;;;;;;5.55;3.03;;;22.90;94.10;;;;;;5039842;28;20045;-81
2022/06/09 10:32:58;;;;;;;4.88;2.80;;;23.10;94.90;;;;;;5038044;28;20723;-81
2022/06/09 10:35:41;;;;;;;5.80;3.00;;;23.30;93.00;;;;;;5041454;28;20496;-81
2022/06/09 10:38:30;;;;;;;4.00;2.85;;;23.50;92.30;;;;;;5041735;28;20029;-82
2022/06/09 10:40:59;;;;;;;4.75;2.72;;;23.60;92.00;;;;;;5029948;28;20253;-80
2022/06/09 10:43:49;;;;;;;4.90;2.67;;;23.60;93.10;;;;;;5036568;28;20033;-80
2022/06/09 10:46:25;;;;;;;4.32;2.70;;;23.90;92.50;;;;;;5041085;28;20352;-81
2022/06/09 10:55:14;;;;;;;3.05;2.03;;;24.60;93.50;;;;;;5049659;28;20392;-81
2022/06/09 10:58:17;;;;;;;3.15;2.15;;;25.00;97.60;;;;;;5032316;28;20028;-82
2022/06/09 11:00:47;;;;;;;3.42;1.85;;;25.60;94.10;;;;;;5054845;28;20032;-80
2022/06/09 11:03:23;;;;;;;3.27;2.20;;;26.10;96.30;;;;;;5041533;28;20029;-81
2022/06/09 11:06:07;;;;;;;2.47;1.92;;;26.70;95.60;;;;;;5050856;28;20456;-81
2022/06/09 11:08:40;;;;;;;2.55;1.70;;;27.20;93.10;;;;;;5055626;28;20480;-82
2022/06/09 11:11:26;;;;;;;1.83;1.70;;;27.60;92.20;;;;;;5066231;28;20033;-82
2022/06/09 11:14:00;;;;;;;2.78;1.90;;;27.90;91.50;;;;;;5049296;28;20337;-82
2022/06/09 11:17:14;;;;;;;5.00;1.60;;;27.90;91.70;;;;;;5066239;28;20120;-80
2022/06/09 11:19:49;;;;;;;2.80;1.73;;;27.90;85.80;;;;;;5034636;28;20068;-81
2022/06/09 11:22:44;;;;;;;3.83;1.70;;;27.70;83.10;;;;;;5051493;28;20039;-81
2022/06/09 11:25:26;;;;;;;2.55;1.70;;;27.50;77.70;;;;;;5047430;28;20033;-81
2022/06/09 11:28:07;;;;;;;1.90;1.67;;;27.10;82.70;;;;;;5035377;28;20510;-81
2022/06/09 11:30:48;;;;;;;2.43;1.60;;;26.80;86.10;;;;;;5045088;28;20088;-79
2022/06/09 11:34:01;;;;;;;3.65;1.50;;;26.40;81.50;;;;;;5056878;28;20057;-82
2022/06/09 11:36:41;;;;;;;3.63;1.50;;;26.00;79.80;;;;;;5024842;28;20508;-80
2022/06/09 11:39:27;;;;;;;3.72;1.70;;;25.60;82.90;;;;;;5063672;28;20031;-81
2022/06/09 11:42:25;;;;;;;4.80;1.70;;;25.10;81.10;;;;;;5065715;28;20059;-80
2022/06/09 11:44:53;;;;;;;2.97;1.43;;;24.70;82.20;;;;;;5045689;28;20489;-81
2022/06/09 11:47:24;;;;;;;2.63;1.50;;;24.40;86.00;;;;;;5049865;28;20074;-82
2022/06/09 11:49:57;;;;;;;1.73;1.38;;;24.20;86.80;;;;;;5059532;28;20141;-81
2022/06/09 11:52:31;;;;;;;2.67;1.40;;;24.00;86.10;;;;;;5033214;28;20029;-82
2022/06/09 11:55:06;;;;;;;2.50;1.45;;;23.80;87.50;;;;;;5063324;28;20032;-80
2022/06/09 11:57:31;;;;;;;2.30;1.30;;;23.60;87.80;;;;;;5049669;28;20037;-81
2022/06/09 12:00:19;;;;;;;3.85;1.45;;;23.50;89.30;;;;;;5053264;28;20036;-81
2022/06/09 12:02:57;;;;;;;1.93;1.50;;;23.30;87.20;;;;;;5049304;28;20040;-81
2022/06/09 12:05:32;;;;;;;3.90;1.60;;;23.20;86.60;;;;;;5047505;28;20041;-81
2022/06/09 12:08:15;;;;;;;2.70;1.60;;;23.10;87.70;;;;;;5029554;28;20043;-81
2022/06/09 12:10:59;;;;;;;3.08;1.77;;;23.10;87.80;;;;;;5038964;28;20240;-81
2022/06/09 12:13:45;;;;;;;2.58;1.40;;;23.10;87.10;;;;;;5040189;28;20033;-80
2022/06/09 12:16:34;;;;;;;2.80;1.50;;;23.00;90.50;;;;;;5059099;28;20480;-81
2022/06/09 12:19:24;;;;;;;3.25;1.70;;;23.10;88.20;;;;;;5043374;28;20044;-80
2022/06/09 12:22:18;;;;;;;2.58;1.73;;;23.10;89.40;;;;;;5034011;28;20071;-82
2022/06/09 12:25:33;;;;;;;5.00;1.88;;;23.30;90.80;;;;;;5031557;28;20348;-81
2022/06/09 12:28:00;;;;;;;4.00;1.88;;;23.40;89.90;;;;;;5034782;28;20060;-81
2022/06/09 12:30:26;;;;;;;3.73;2.10;;;23.60;92.50;;;;;;5021227;28;20048;-81
2022/06/09 12:33:23;;;;;;;5.30;1.90;;;23.80;92.70;;;;;;5048133;28;20566;-80
2022/06/09 12:35:54;;;;;;;4.30;2.15;;;24.10;90.40;;;;;;5056712;28;20552;-80
2022/06/09 12:38:35;;;;;;;4.20;1.95;;;24.30;91.70;;;;;;5048913;28;20056;-80
2022/06/09 12:41:18;;;;;;;4.97;2.10;;;24.50;90.00;;;;;;5040950;28;20032;-82
2022/06/09 12:43:53;;;;;;;6.03;2.10;;;24.70;90.50;;;;;;5041691;28;20028;-80
2022/06/09 12:46:22;;;;;;;4.38;2.20;;;24.90;92.10;;;;;;5034766;28;20033;-80
2022/06/09 12:48:49;;;;;;;3.53;1.92;;;25.10;91.90;;;;;;5061433;28;20467;-81
2022/06/09 12:51:29;;;;;;;2.75;2.10;;;25.40;93.00;;;;;;5045370;28;20027;-81
2022/06/09 12:54:07;;;;;;;4.55;2.40;;;25.60;91.00;;;;;;5040513;28;20045;-81
2022/06/09 12:56:41;;;;;;;4.07;2.03;;;25.90;90.20;;;;;;5035971;28;20067;-81
2022/06/09 12:59:38;;;;;;;3.92;2.03;;;26.10;91.40;;;;;;5062816;28;20051;-80
2022/06/09 13:02:17;;;;;;;4.03;2.20;;;26.40;89.50;;;;;;5037327;28;20043;-81
2022/06/09 13:04:58;;;;;;;3.25;1.92;;;26.70;89.20;;;;;;5056628;28;20025;-82
2022/06/09 13:07:27;;;;;;;4.15;1.80;;;26.80;88.40;;;;;;5044049;28;20028;-80
2022/06/09 13:10:19;;;;;;;2.33;1.70;;;26.90;90.90;;;;;;5046405;28;20249;-80
2022/06/09 13:12:51;;;;;;;2.42;1.52;;;27.00;84.90;;;;;;5045400;28;20037;-80
2022/06/09 13:15:33;;;;;;;3.38;1.90;;;27.00;88.50;;;;;;5040311;28;20118;-81
2022/06/09 13:18:23;;;;;;;2.33;1.50;;;26.90;83.30;;;;;;5080676;28;20472;-81
2022/06/09 13:21:18;;;;;;;2.75;1.70;;;26.80;86.50;;;;;;5049783;28;20052;-81
2022/06/09 13:23:47;;;;;;;3.50;1.70;;;26.60;82.90;;;;;;5043848;28;20044;-82
2022/06/09 13:26:20;;;;;;;3.38;1.70;;;26.50;85.40;;;;;;5039559;28;20294;-81
2022/06/09 13:28:50;;;;;;;3.20;1.60;;;26.40;84.00;;;;;;5054539;28;20283;-81
2022/06/09 13:31:27;;;;;;;5.05;1.77;;;26.20;84.50;;;;;;5033599;28;20150;-81
2022/06/09 13:34:13;;;;;;;4.22;1.70;;;26.10;82.70;;;;;;5056757;28;20132;-82
2022/06/09 13:36:57;;;;;;;3.23;1.40;;;26.00;82.90;;;;;;5051836;28;20499;-82